Time;durP1;ratioP1;P1;durP2;ratioP2;P2;SDS_P1;SDS_P2;PMS_P1;PMS_P2;Temp;Humidity;BMP_temperature;BMP_pressure;BME280_temperature;BME280_humidity;BME280_pressure;Samples;Min_cycle;Max_cycle;Signal;HPM_P1;HPM_P2
2024/04/13 00:01:57;;;;;;;1.23;1.03;;;18.30;99.90;;;18.22;54.37;102405.56;6105688;21;93424;-42
2024/04/13 00:04:33;;;;;;;1.90;1.10;;;18.30;99.90;;;18.20;54.75;102402.06;6273500;21;95557;-42
2024/04/13 00:06:59;;;;;;;1.67;1.20;;;18.30;99.90;;;18.19;54.75;102399.47;6077291;21;99762;-40
2024/04/13 00:09:33;;;;;;;1.10;0.90;;;18.30;99.90;;;18.21;53.98;102392.25;6186982;21;122679;-41
2024/04/13 00:12:30;;;;;;;1.33;1.20;;;18.30;99.90;;;18.22;54.11;102399.34;6123999;21;102454;-41
2024/04/13 00:15:30;;;;;;;1.70;1.30;;;18.30;99.90;;;18.22;54.35;102394.00;6124257;21;94295;-41
2024/04/13 00:17:58;;;;;;;0.90;0.90;;;18.30;99.90;;;18.20;54.58;102390.53;6193365;21;103048;-39
2024/04/13 00:20:24;;;;;;;1.30;1.20;;;18.30;99.90;;;18.20;54.56;102390.53;6483855;21;100097;-39
2024/04/13 00:22:55;;;;;;;0.97;0.80;;;18.30;99.90;;;18.18;54.46;102381.72;6540105;21;101523;-42
2024/04/13 00:25:21;;;;;;;1.90;1.10;;;18.30;99.90;;;18.19;54.28;102378.09;6531280;21;93497;-42
2024/04/13 00:27:50;;;;;;;1.17;1.07;;;18.30;99.90;;;18.20;54.78;102379.84;6498335;21;109083;-42
2024/04/13 00:30:16;;;;;;;0.80;0.80;;;18.30;99.90;;;18.20;54.48;102374.50;6545244;21;94254;-42
2024/04/13 00:32:48;;;;;;;2.13;0.90;;;18.30;99.90;;;18.22;54.51;102377.97;6462449;21;97211;-36
2024/04/13 00:35:16;;;;;;;3.03;1.20;;;18.30;99.90;;;18.22;53.69;102372.63;6446761;21;93437;-38
2024/04/13 00:37:41;;;;;;;3.70;2.50;;;18.30;99.90;;;18.23;56.76;102369.06;6464110;21;94357;-39
2024/04/13 00:40:08;;;;;;;2.13;1.30;;;18.30;99.90;;;18.21;54.54;102369.09;6425777;21;94292;-35
2024/04/13 00:42:36;;;;;;;1.43;1.07;;;18.30;99.90;;;18.20;55.26;102375.38;6411426;21;95416;-42
2024/04/13 00:45:08;;;;;;;1.37;0.97;;;18.30;99.90;;;18.21;54.46;102365.56;6454083;21;98159;-42
2024/04/13 00:47:37;;;;;;;1.70;1.17;;;18.20;99.90;;;18.19;54.25;102359.41;6478941;21;94609;-41
2024/04/13 00:50:15;;;;;;;1.90;1.30;;;18.20;99.90;;;18.19;54.65;102360.28;6432479;21;125519;-41
2024/04/13 00:52:50;;;;;;;1.80;1.40;;;18.30;99.90;;;18.20;55.21;102366.50;6475276;21;94505;-40
2024/04/13 00:55:17;;;;;;;1.23;0.83;;;18.20;99.90;;;18.18;54.05;102358.53;6458508;21;94320;-38
2024/04/13 00:57:51;;;;;;;1.43;1.30;;;18.20;99.90;;;18.16;54.07;102362.22;6432446;21;94872;-34
2024/04/13 01:00:20;;;;;;;2.33;1.27;;;18.20;99.90;;;18.18;54.78;102360.34;6403408;21;94605;-43
2024/04/13 01:02:48;;;;;;;1.10;1.00;;;18.30;99.90;;;18.18;54.16;102365.69;6434954;21;93577;-39
2024/04/13 01:05:14;;;;;;;1.23;1.13;;;18.30;99.90;;;18.18;54.60;102368.34;6365913;21;93659;-36
2024/04/13 01:07:46;;;;;;;2.50;1.83;;;18.20;99.90;;;18.17;54.89;102371.97;6280236;21;95045;-39
2024/04/13 01:10:14;;;;;;;1.60;1.17;;;18.20;99.90;;;18.14;54.65;102371.16;6206098;21;99598;-37
2024/04/13 01:12:52;;;;;;;1.03;0.90;;;18.20;99.90;;;18.14;54.80;102360.47;6440359;21;93323;-41
2024/04/13 01:15:27;;;;;;;1.27;1.10;;;18.20;99.90;;;18.13;54.08;102358.75;6510204;21;93924;-36
2024/04/13 01:18:00;;;;;;;1.90;1.17;;;18.20;99.90;;;18.13;54.31;102363.22;6377101;21;98573;-43
2024/04/13 01:20:27;;;;;;;1.43;1.10;;;18.20;99.90;;;18.13;54.71;102353.41;6405007;21;100653;-39
2024/04/13 01:22:59;;;;;;;1.40;1.30;;;18.20;99.90;;;18.16;54.44;102356.88;6499356;21;94156;-44
2024/04/13 01:25:25;;;;;;;1.30;1.20;;;18.20;99.90;;;18.18;54.58;102360.34;6376938;21;93688;-45
2024/04/13 01:27:56;;;;;;;1.13;1.03;;;18.20;99.90;;;18.18;54.61;102355.00;6438126;21;95374;-38
2024/04/13 01:30:28;;;;;;;1.77;1.40;;;18.20;99.90;;;18.17;54.24;102348.78;6499720;21;105369;-44
2024/04/13 01:32:56;;;;;;;1.80;1.40;;;18.30;99.90;;;18.18;55.19;102349.66;6555253;21;96458;-37
2024/04/13 01:35:22;;;;;;;1.37;1.23;;;18.20;99.90;;;18.17;54.11;102353.25;6461857;21;100072;-43
2024/04/13 01:37:47;;;;;;;1.60;1.40;;;18.20;99.90;;;18.16;54.91;102351.53;6462735;21;94757;-40
2024/04/13 01:40:13;;;;;;;1.20;1.10;;;18.20;99.90;;;18.16;54.02;102352.41;6513286;21;94986;-42
2024/04/13 01:42:44;;;;;;;1.17;1.03;;;18.20;99.90;;;18.16;54.21;102359.53;6549883;21;94142;-42
2024/04/13 01:45:10;;;;;;;1.50;1.13;;;18.20;99.90;;;18.16;54.78;102359.53;6555891;21;95496;-36
2024/04/13 01:47:35;;;;;;;1.50;1.40;;;18.20;99.90;;;18.16;54.51;102363.09;6509192;21;95078;-39
2024/04/13 01:50:02;;;;;;;1.40;1.23;;;18.20;99.90;;;18.13;54.21;102368.56;6442938;21;98635;-39
2024/04/13 01:52:29;;;;;;;1.50;1.37;;;18.20;99.90;;;18.12;54.60;102357.00;6336598;21;93534;-42
2024/04/13 01:54:59;;;;;;;1.57;1.03;;;18.20;99.90;;;18.11;54.41;102354.41;6388269;21;93443;-37
2024/04/13 01:57:25;;;;;;;1.50;1.10;;;18.20;99.90;;;18.12;54.52;102351.66;6445830;21;99778;-40
2024/04/13 01:59:56;;;;;;;1.40;1.03;;;18.20;99.90;;;18.12;54.65;102354.34;6566118;21;94965;-41
2024/04/13 02:02:27;;;;;;;0.83;0.83;;;18.20;99.90;;;18.10;54.90;102347.31;6553560;21;104571;-37
2024/04/13 02:04:58;;;;;;;1.33;1.07;;;18.10;99.90;;;18.09;54.46;102346.44;6517887;21;93447;-43
2024/04/13 02:07:40;;;;;;;;;;;;;;;;;;;;;
2024/04/13 02:10:10;;;;;;;1.37;1.20;;;18.10;99.90;;;18.07;54.77;102348.28;6406398;21;125092;-42
2024/04/13 02:12:36;;;;;;;2.40;1.37;;;18.10;99.90;;;18.05;54.75;102339.47;6401398;21;93474;-42
2024/04/13 02:15:04;;;;;;;4.27;2.07;;;18.10;99.90;;;18.04;55.99;102343.06;6434657;21;93786;-41
2024/04/13 02:17:31;;;;;;;1.30;1.20;;;18.10;99.90;;;18.03;54.45;102336.00;6439807;21;95859;-36
2024/04/13 02:20:03;;;;;;;1.73;1.37;;;18.00;99.90;;;18.03;54.86;102336.00;6480902;21;97460;-41
2024/04/13 02:22:36;;;;;;;1.63;0.93;;;18.00;99.90;;;18.02;54.49;102328.91;6396221;21;93379;-41
2024/04/13 02:25:03;;;;;;;3.17;2.50;;;18.00;99.90;;;18.01;56.52;102327.19;6439363;21;93523;-35
2024/04/13 02:27:28;;;;;;;2.50;1.23;;;18.00;99.90;;;17.99;54.99;102323.72;6484655;21;96196;-39
2024/04/13 02:29:54;;;;;;;2.00;1.03;;;18.00;99.90;;;17.99;55.02;102329.06;6464260;21;93778;-37
2024/04/13 02:32:23;;;;;;;3.13;2.37;;;18.00;99.90;;;17.98;55.42;102332.66;6494539;21;93669;-39
2024/04/13 02:34:49;;;;;;;2.10;1.53;;;18.00;99.90;;;17.97;55.14;102317.56;6453547;21;93693;-46
2024/04/13 02:37:15;;;;;;;1.80;1.60;;;18.00;99.90;;;18.00;55.47;102317.44;6357753;21;109834;-42
2024/04/13 02:39:46;;;;;;;1.30;1.20;;;18.00;99.90;;;17.99;54.84;102313.03;6308755;21;94790;-38
2024/04/13 02:42:12;;;;;;;1.20;1.10;;;18.00;99.90;;;18.00;54.98;102309.44;6334595;21;93282;-43
2024/04/13 02:44:39;;;;;;;1.63;1.20;;;18.00;99.90;;;17.99;54.79;102302.34;6460361;21;104042;-41
2024/04/13 02:47:05;;;;;;;1.67;0.97;;;18.00;99.90;;;17.99;55.30;102307.69;6452392;21;97418;-39
2024/04/13 02:49:31;;;;;;;1.57;1.30;;;18.00;99.90;;;17.98;55.91;102311.28;6534470;21;95667;-42
2024/04/13 02:51:56;;;;;;;1.73;1.27;;;18.00;99.90;;;17.96;55.54;102313.16;6495824;21;107137;-39
2024/04/13 02:54:22;;;;;;;1.30;1.20;;;17.90;99.90;;;17.93;55.21;102318.59;6505088;21;98468;-37
2024/04/13 02:56:48;;;;;;;2.63;1.47;;;17.90;99.90;;;17.91;55.81;102306.25;6582851;21;121946;-41
2024/04/13 02:59:16;;;;;;;1.60;1.20;;;17.90;99.90;;;17.87;56.12;102307.31;6490191;21;96324;-40
2024/04/13 03:01:46;;;;;;;2.73;1.60;;;17.80;99.90;;;17.85;55.64;102304.72;6495060;21;93620;-42
2024/04/13 03:04:12;;;;;;;1.57;1.10;;;17.70;99.90;;;17.84;55.44;102302.97;6415933;21;93646;-42
2024/04/13 03:06:47;;;;;;;1.90;1.33;;;17.80;99.90;;;17.87;55.53;102301.97;6508042;21;96134;-47
2024/04/13 03:09:13;;;;;;;1.90;1.40;;;17.80;99.90;;;17.87;55.48;102302.84;6491631;21;95213;-42
2024/04/13 03:11:42;;;;;;;1.50;1.13;;;17.80;99.90;;;17.87;55.27;102297.50;6517504;21;93178;-43
2024/04/13 03:14:10;;;;;;;1.20;1.10;;;17.90;99.90;;;17.88;55.60;102299.25;6446921;21;93490;-40
2024/04/13 03:16:36;;;;;;;1.70;1.30;;;17.90;99.90;;;17.85;55.75;102302.03;6451851;21;95015;-42
2024/04/13 03:19:02;;;;;;;1.97;1.43;;;17.80;99.90;;;17.84;55.91;102302.97;6484783;21;95738;-38
2024/04/13 03:21:35;;;;;;;2.63;1.40;;;17.80;99.90;;;17.85;56.24;102296.69;6491556;21;94088;-43
2024/04/13 03:24:01;;;;;;;2.03;1.30;;;17.80;99.90;;;17.83;55.59;102298.56;6577347;21;93591;-42
2024/04/13 03:26:27;;;;;;;1.60;1.20;;;17.80;99.90;;;17.83;55.20;102290.56;6568416;21;93964;-41
2024/04/13 03:28:55;;;;;;;2.43;1.43;;;17.80;99.90;;;17.82;55.98;102283.47;6595308;21;108775;-42
2024/04/13 03:31:23;;;;;;;1.53;1.43;;;17.80;99.90;;;17.83;55.95;102285.22;6544410;21;93073;-44
2024/04/13 03:33:51;;;;;;;3.23;1.10;;;17.80;99.90;;;17.83;55.95;102291.44;6414218;21;93525;-39
2024/04/13 03:36:17;;;;;;;3.13;2.00;;;17.80;99.90;;;17.83;56.39;102293.22;6414090;21;94752;-40
2024/04/13 03:38:45;;;;;;;1.60;1.40;;;17.80;99.90;;;17.84;55.43;102294.97;6363019;21;96097;-42
2024/04/13 03:41:11;;;;;;;2.17;1.27;;;17.80;99.90;;;17.82;55.39;102294.16;6533156;21;93479;-40
2024/04/13 03:43:37;;;;;;;1.17;1.00;;;17.80;99.90;;;17.81;56.01;102289.75;6541423;21;93690;-38
2024/04/13 03:46:05;;;;;;;1.50;1.30;;;17.80;99.90;;;17.80;55.43;102291.56;6560050;21;93811;-42
2024/04/13 03:48:41;;;;;;;1.33;1.23;;;17.80;99.90;;;17.83;55.68;102301.22;6497885;21;93904;-40
2024/04/13 03:51:16;;;;;;;1.70;1.30;;;17.80;99.90;;;17.83;56.15;102298.56;6537902;21;93459;-38
2024/04/13 03:53:46;;;;;;;2.70;1.20;;;17.80;99.90;;;17.83;56.15;102290.56;6487182;21;93555;-35
2024/04/13 03:56:16;;;;;;;1.47;1.20;;;17.80;99.90;;;17.82;55.74;102299.50;6543387;21;94923;-38
2024/04/13 03:58:47;;;;;;;1.30;1.20;;;17.80;99.90;;;17.81;56.20;102293.28;6594460;21;93664;-39
2024/04/13 04:01:13;;;;;;;1.00;0.83;;;17.80;99.90;;;17.77;55.35;102297.00;6535948;21;93270;-42
2024/04/13 04:03:39;;;;;;;1.93;1.30;;;17.70;99.90;;;17.76;56.37;102299.72;6539847;21;96519;-38
2024/04/13 04:06:07;;;;;;;1.80;1.60;;;17.70;99.90;;;17.77;55.74;102296.13;6587557;21;98007;-40
2024/04/13 04:08:33;;;;;;;2.33;1.40;;;17.70;99.90;;;17.76;56.04;102299.72;6573011;21;94255;-42
2024/04/13 04:10:59;;;;;;;2.07;1.50;;;17.70;99.90;;;17.75;55.89;102298.84;6555068;21;93355;-45
2024/04/13 04:13:25;;;;;;;4.17;2.53;;;17.70;99.90;;;17.71;58.16;102305.25;6514507;21;95460;-38
2024/04/13 04:15:54;;;;;;;4.87;2.47;;;17.60;99.90;;;17.67;57.84;102302.75;6480312;21;115242;-42
2024/04/13 04:18:20;;;;;;;2.93;2.40;;;17.50;99.90;;;17.58;58.33;102305.75;6391593;21;94393;-40
2024/04/13 04:20:48;;;;;;;2.30;1.93;;;17.40;99.90;;;17.50;57.97;102309.63;6413806;21;93501;-40
2024/04/13 04:23:16;;;;;;;2.43;1.57;;;17.20;99.90;;;17.48;56.83;102306.09;6460254;21;93579;-40
2024/04/13 04:25:45;;;;;;;2.73;1.60;;;17.20;99.90;;;17.48;56.89;102306.09;6514362;21;94646;-42
2024/04/13 04:28:11;;;;;;;2.03;1.30;;;17.30;99.90;;;17.48;57.17;102310.56;6597528;21;95136;-41
2024/04/13 04:30:37;;;;;;;1.87;1.50;;;17.30;99.90;;;17.48;56.67;102305.22;6517871;21;93248;-43
2024/04/13 04:33:13;;;;;;;4.43;2.33;;;17.30;99.90;;;17.45;57.35;102300.88;6582232;21;93726;-36
2024/04/13 04:35:38;;;;;;;2.03;1.17;;;17.30;99.90;;;17.45;57.26;102310.69;6452011;21;95500;-45
2024/04/13 04:38:06;;;;;;;1.53;1.20;;;17.20;99.90;;;17.45;56.95;102300.88;6487300;21;103371;-42
2024/04/13 04:40:34;;;;;;;2.10;1.50;;;17.30;99.90;;;17.46;57.14;102305.28;6502252;21;93124;-37
2024/04/13 04:43:03;;;;;;;1.47;1.13;;;17.30;99.90;;;17.47;56.41;102309.69;6490147;21;93096;-40
2024/04/13 04:45:34;;;;;;;2.70;2.10;;;17.30;99.90;;;17.47;57.58;102315.03;6575499;21;99195;-34
2024/04/13 04:48:08;;;;;;;3.93;2.40;;;17.30;99.90;;;17.47;57.16;102320.38;6503092;21;100300;-40
2024/04/13 04:50:34;;;;;;;1.73;1.30;;;17.30;99.90;;;17.46;56.73;102312.44;6454859;21;93113;-39
2024/04/13 04:53:02;;;;;;;4.97;2.77;;;17.30;99.90;;;17.46;56.97;102318.63;6467620;21;93267;-43
2024/04/13 04:55:28;;;;;;;1.70;1.33;;;17.30;99.90;;;17.45;57.05;102311.56;6444225;21;98782;-38
2024/04/13 04:57:57;;;;;;;2.57;1.17;;;17.30;99.90;;;17.46;57.24;102313.31;6464000;21;94852;-38
2024/04/13 05:00:22;;;;;;;1.87;1.37;;;17.30;99.90;;;17.49;56.78;102317.66;6484283;21;101444;-38
2024/04/13 05:02:54;;;;;;;1.57;1.40;;;17.40;99.90;;;17.53;56.63;102320.16;6371962;21;96923;-39
2024/04/13 05:05:22;;;;;;;2.40;1.37;;;17.40;99.90;;;17.60;56.32;102319.91;6492466;21;97389;-41
2024/04/13 05:07:47;;;;;;;4.13;2.50;;;17.50;99.90;;;17.59;57.36;102328.84;6456502;21;115522;-42
2024/04/13 05:10:14;;;;;;;2.73;1.67;;;17.50;99.90;;;17.59;56.65;102326.19;6421289;21;98582;-42
2024/04/13 05:12:42;;;;;;;1.40;1.30;;;17.50;99.90;;;17.58;56.85;102321.78;6566700;21;93170;-42
2024/04/13 05:15:08;;;;;;;1.90;1.40;;;17.50;99.90;;;17.57;56.66;102325.38;6574338;21;94626;-43
2024/04/13 05:17:34;;;;;;;1.80;1.47;;;17.40;99.90;;;17.57;56.56;102320.03;6451412;21;95506;-42
2024/04/13 05:20:00;;;;;;;2.37;1.80;;;17.40;99.90;;;17.60;55.99;102319.91;6343575;21;102821;-42
2024/04/13 05:22:25;;;;;;;1.83;1.50;;;17.50;99.90;;;17.63;56.08;102314.44;6360528;21;96106;-38
2024/04/13 05:24:51;;;;;;;1.73;1.00;;;17.60;99.90;;;17.67;55.93;102310.75;6435055;21;110373;-42
2024/04/13 05:27:19;;;;;;;2.77;1.17;;;17.60;99.90;;;17.70;55.81;102311.53;6481317;21;97685;-40
2024/04/13 05:29:52;;;;;;;2.60;1.57;;;17.70;99.90;;;17.73;56.21;102306.06;6502236;21;95982;-40
2024/04/13 05:32:18;;;;;;;1.53;1.40;;;17.80;99.90;;;17.78;55.89;102319.22;6578741;21;99759;-42
2024/04/13 05:34:49;;;;;;;1.57;1.20;;;17.80;99.90;;;17.82;55.90;102312.84;6582271;21;94629;-39
2024/04/13 05:37:15;;;;;;;1.70;1.23;;;17.90;99.90;;;17.85;55.63;102315.38;6596329;21;95931;-40
2024/04/13 05:39:41;;;;;;;1.33;1.00;;;17.90;99.90;;;17.89;55.14;102321.47;6539261;21;93492;-41
2024/04/13 05:42:07;;;;;;;1.90;1.10;;;18.00;99.90;;;17.92;56.11;102321.34;6532291;21;100057;-43
2024/04/13 05:44:36;;;;;;;1.23;1.13;;;18.00;99.90;;;17.92;55.30;102322.19;6475628;21;114006;-38
2024/04/13 05:47:04;;;;;;;1.60;1.20;;;18.00;99.90;;;17.95;55.52;102319.44;6472039;21;101718;-41
2024/04/13 05:49:30;;;;;;;1.73;1.23;;;18.00;99.90;;;17.96;55.47;102323.84;6502558;21;93437;-39
2024/04/13 05:51:56;;;;;;;1.97;1.60;;;18.10;99.90;;;17.96;55.31;102315.84;6515875;21;93657;-41
2024/04/13 05:54:24;;;;;;;1.33;1.17;;;18.10;99.90;;;17.98;54.83;102316.63;6468343;21;103811;-41
2024/04/13 05:56:53;;;;;;;3.00;1.33;;;18.10;99.90;;;17.98;57.02;102321.97;6472269;21;97627;-40
2024/04/13 05:59:19;;;;;;;6.30;2.60;;;18.10;99.90;;;17.96;59.12;102325.66;6382085;21;93595;-38
2024/04/13 06:01:45;;;;;;;2.20;1.67;;;18.00;99.90;;;17.91;56.58;102314.25;6476372;21;94591;-43
2024/04/13 06:04:11;;;;;;;2.37;1.20;;;17.90;99.90;;;17.90;56.37;102313.38;6505036;21;94050;-42
2024/04/13 06:06:37;;;;;;;2.57;1.20;;;17.90;99.90;;;17.91;55.62;102314.25;6465005;21;95326;-42
2024/04/13 06:09:03;;;;;;;3.33;2.30;;;17.90;99.90;;;17.90;57.90;102318.72;6536351;21;93204;-42
2024/04/13 06:11:28;;;;;;;3.00;2.40;;;17.90;99.90;;;17.83;58.09;102319.91;6461019;21;93788;-42
2024/04/13 06:13:55;;;;;;;1.07;0.97;;;17.80;99.90;;;17.83;56.20;102318.13;6449721;21;99384;-42
2024/04/13 06:16:20;;;;;;;3.30;1.47;;;17.80;99.90;;;17.82;56.01;102319.06;6541506;21;114378;-41
2024/04/13 06:18:49;;;;;;;3.40;2.00;;;17.80;99.90;;;17.82;59.78;102318.19;6521640;21;93403;-35
2024/04/13 06:21:17;;;;;;;2.03;1.63;;;17.80;99.90;;;17.78;56.90;102308.53;6508968;21;93253;-48
2024/04/13 06:23:45;;;;;;;2.90;2.20;;;17.80;99.90;;;17.76;60.29;102313.06;6461106;21;96988;-38
2024/04/13 06:26:13;;;;;;;3.10;1.83;;;17.80;99.90;;;17.79;56.09;102310.28;6539886;21;104772;-43
2024/04/13 06:28:42;;;;;;;1.13;1.00;;;17.80;99.90;;;17.83;56.21;102307.44;6533114;21;93420;-42
2024/04/13 06:31:15;;;;;;;3.10;2.00;;;17.80;99.90;;;17.87;56.52;102309.97;6553721;21;93597;-49
2024/04/13 06:33:41;;;;;;;1.47;1.33;;;17.90;99.90;;;17.87;57.35;102313.53;6448410;21;94618;-42
2024/04/13 06:36:09;;;;;;;1.30;1.07;;;17.90;99.90;;;17.90;56.50;102308.06;6496068;21;102353;-42
2024/04/13 06:38:35;;;;;;;2.60;2.00;;;18.00;99.90;;;17.90;58.30;102305.38;6587892;21;93382;-39
2024/04/13 06:41:01;;;;;;;2.13;1.67;;;18.00;99.90;;;17.88;55.89;102299.25;6575067;21;104831;-40
2024/04/13 06:43:27;;;;;;;2.07;1.87;;;17.90;99.90;;;17.89;59.27;102295.63;6573827;21;107542;-40
2024/04/13 06:45:52;;;;;;;1.33;1.20;;;18.00;99.90;;;17.88;56.19;102293.91;6506892;21;95092;-38
2024/04/13 06:48:20;;;;;;;4.43;2.33;;;18.00;99.90;;;17.93;58.63;102286.56;6586655;21;93472;-38
2024/04/13 06:50:46;;;;;;;2.97;2.10;;;18.00;99.90;;;17.97;56.13;102282.84;6589950;21;93487;-37
2024/04/13 06:53:12;;;;;;;3.13;1.70;;;18.10;99.90;;;17.97;56.42;102287.34;6574103;21;114302;-40
2024/04/13 06:55:44;;;;;;;2.20;1.37;;;18.10;99.90;;;17.99;55.07;102281.00;6591707;21;102192;-43
2024/04/13 06:58:10;;;;;;;2.23;1.33;;;18.10;99.90;;;18.00;56.11;102280.06;6564297;21;93374;-42
2024/04/13 07:00:36;;;;;;;1.10;1.03;;;18.20;99.90;;;17.99;55.65;102283.66;6537743;21;93259;-46
2024/04/13 07:03:02;;;;;;;4.37;2.33;;;18.20;99.90;;;18.01;60.97;102275.59;6528231;21;94065;-40
2024/04/13 07:05:28;;;;;;;4.17;2.13;;;18.20;99.90;;;17.99;56.02;102274.78;6561512;21;99524;-39
2024/04/13 07:07:54;;;;;;;2.63;1.30;;;18.10;99.90;;;17.99;55.74;102281.00;6543551;21;93539;-41
2024/04/13 07:10:22;;;;;;;2.83;1.80;;;18.10;99.90;;;18.02;57.17;102274.66;6440459;21;102574;-37
2024/04/13 07:12:48;;;;;;;1.37;1.20;;;18.20;99.90;;;18.04;55.57;102279.00;6499318;21;93535;-46
2024/04/13 07:15:22;;;;;;;4.37;1.47;;;18.20;99.90;;;18.11;55.74;102280.50;6593404;21;96131;-46
2024/04/13 07:17:48;;;;;;;5.63;1.93;;;18.20;99.90;;;18.11;55.41;102280.50;6548329;21;94338;-42
2024/04/13 07:20:13;;;;;;;1.83;1.20;;;18.20;99.90;;;18.09;55.47;102282.34;6521155;21;93600;-39
2024/04/13 07:22:39;;;;;;;1.87;1.30;;;18.30;99.90;;;18.10;55.10;102278.75;6325800;21;122084;-44
2024/04/13 07:25:05;;;;;;;1.50;1.33;;;18.30;99.90;;;18.11;55.09;102274.28;6428008;21;104126;-42
2024/04/13 07:27:41;;;;;;;2.63;1.20;;;18.30;99.90;;;18.09;55.65;102271.69;6421469;21;93490;-41
2024/04/13 07:30:07;;;;;;;1.77;1.03;;;18.30;99.90;;;18.04;55.53;102272.78;6461847;21;93522;-41
2024/04/13 07:32:35;;;;;;;1.73;1.30;;;18.30;99.90;;;18.07;55.49;102272.66;6499210;21;102134;-36
2024/04/13 07:35:00;;;;;;;4.93;2.47;;;18.30;99.90;;;18.11;58.23;102275.16;6444012;21;98972;-43
2024/04/13 07:37:26;;;;;;;1.47;0.90;;;18.30;99.90;;;18.11;54.94;102280.50;6520623;21;93875;-42
2024/04/13 07:39:52;;;;;;;1.87;1.20;;;18.30;99.90;;;18.17;55.23;102278.47;6567825;21;102080;-42
2024/04/13 07:42:26;;;;;;;2.70;1.53;;;18.40;99.90;;;18.20;56.04;102278.34;6511663;21;122523;-42
2024/04/13 07:44:52;;;;;;;4.43;2.17;;;18.40;99.90;;;18.23;59.04;102272.91;6363067;21;95296;-40
2024/04/13 07:47:21;;;;;;;2.10;1.73;;;18.40;99.90;;;18.10;55.30;102278.75;6385858;21;94003;-36
2024/04/13 07:49:51;;;;;;;3.00;2.50;;;18.40;99.90;;;18.19;58.72;102271.28;6467969;21;93325;-41
2024/04/13 07:52:17;;;;;;;1.90;1.60;;;18.40;99.90;;;18.21;56.55;102270.28;6478004;21;95829;-39
2024/04/13 07:54:44;;;;;;;4.00;3.00;;;18.40;99.90;;;18.23;58.69;102267.56;6492654;21;94252;-41
2024/04/13 07:57:18;;;;;;;2.07;1.80;;;18.40;99.90;;;18.24;58.34;102269.28;6345807;21;97793;-45
2024/04/13 07:59:45;;;;;;;1.40;1.03;;;18.40;99.90;;;18.14;55.48;102264.34;6475959;21;93421;-39
2024/04/13 08:02:10;;;;;;;1.53;1.07;;;18.40;99.90;;;18.17;55.24;102262.47;6435105;21;95574;-38
2024/04/13 08:04:39;;;;;;;2.07;1.40;;;18.40;99.90;;;18.13;55.79;102265.25;6508961;21;96034;-39
2024/04/13 08:07:05;;;;;;;1.67;1.23;;;18.40;99.90;;;18.13;55.43;102257.25;6397196;21;93713;-43
2024/04/13 08:09:30;;;;;;;4.93;2.50;;;18.40;99.90;;;18.24;59.93;102253.28;6465389;21;93430;-39
2024/04/13 08:12:02;;;;;;;5.13;3.23;;;18.40;99.90;;;18.28;62.45;102260.22;6460901;21;104646;-42
2024/04/13 08:14:28;;;;;;;2.73;1.80;;;18.40;99.90;;;18.23;56.61;102252.41;6487975;21;94823;-35
2024/04/13 08:16:53;;;;;;;1.63;1.30;;;18.40;99.90;;;18.21;55.18;102250.72;6511054;21;93495;-41
2024/04/13 08:19:27;;;;;;;4.07;2.70;;;18.40;99.90;;;18.30;61.89;102253.00;6337001;21;100557;-42
2024/04/13 08:22:00;;;;;;;3.13;2.33;;;18.50;99.90;;;18.26;56.75;102246.94;6436676;21;95681;-40
2024/04/13 08:24:29;;;;;;;3.10;2.23;;;18.50;99.90;;;18.33;58.85;102250.19;6424728;21;95168;-38
2024/04/13 08:26:57;;;;;;;3.30;2.73;;;18.50;99.90;;;18.35;58.43;102248.31;6484172;21;98199;-40
2024/04/13 08:29:26;;;;;;;5.60;2.90;;;18.60;99.90;;;18.38;59.00;102245.53;6303704;21;93422;-43
2024/04/13 08:31:52;;;;;;;9.90;3.80;;;18.60;99.90;;;18.41;62.80;102245.41;6368891;21;94555;-41
2024/04/13 08:34:29;;;;;;;4.63;2.87;;;18.60;99.90;;;18.45;61.94;102241.66;6365723;21;95310;-37
2024/04/13 08:36:59;;;;;;;3.47;1.63;;;18.60;99.90;;;18.39;57.84;102248.13;6212700;21;93341;-42
2024/04/13 08:39:28;;;;;;;3.47;2.60;;;18.60;99.90;;;18.44;61.38;102240.78;6435329;21;101692;-40
2024/04/13 08:42:05;;;;;;;3.27;1.70;;;18.60;99.90;;;18.40;56.20;102238.31;6441836;21;94504;-43
2024/04/13 08:44:34;;;;;;;2.40;1.40;;;18.60;99.90;;;18.36;56.31;102245.56;6435078;21;101560;-41
2024/04/13 08:47:01;;;;;;;2.67;1.43;;;18.60;99.90;;;18.36;55.48;102226.00;6372293;21;96255;-39
2024/04/13 08:49:30;;;;;;;3.83;2.80;;;18.60;99.90;;;18.43;60.08;102227.50;6434654;21;93444;-41
2024/04/13 08:52:00;;;;;;;7.60;3.60;;;18.60;99.90;;;18.54;64.23;102219.88;6421287;21;95889;-37
2024/04/13 08:54:31;;;;;;;6.73;3.70;;;18.70;99.90;;;18.58;59.61;102221.47;6321677;21;111626;-43
2024/04/13 08:57:00;;;;;;;7.00;2.83;;;18.80;99.90;;;18.60;59.60;102222.25;6368293;21;93949;-39
2024/04/13 08:59:28;;;;;;;7.30;3.33;;;18.80;99.90;;;18.66;63.50;102222.03;6322290;21;93858;-43
2024/04/13 09:02:02;;;;;;;5.77;3.10;;;18.80;99.90;;;18.69;57.74;102229.06;6317908;21;96235;-42
2024/04/13 09:04:28;;;;;;;4.03;2.50;;;18.90;99.90;;;18.62;57.16;102220.38;6332835;21;97864;-39
2024/04/13 09:07:00;;;;;;;3.20;1.70;;;18.90;99.90;;;18.63;55.84;102227.50;6347609;21;95760;-45
2024/04/13 09:09:33;;;;;;;8.43;3.70;;;18.80;99.90;;;18.75;64.45;102228.75;6252273;21;94895;-42
2024/04/13 09:11:59;;;;;;;4.70;3.07;;;18.90;99.90;;;18.82;63.46;102218.69;6363740;21;98803;-42
2024/04/13 09:14:26;;;;;;;7.03;3.23;;;19.00;99.90;;;18.89;63.18;102225.47;6321738;21;107480;-41
2024/04/13 09:16:55;;;;;;;5.93;3.43;;;19.10;99.90;;;18.83;56.31;102223.09;6294766;21;94577;-36
2024/04/13 09:19:23;;;;;;;5.33;3.17;;;19.00;99.90;;;18.86;57.91;102215.78;6121457;21;95889;-43
2024/04/13 09:21:55;;;;;;;7.17;3.70;;;19.10;99.90;;;18.92;57.59;102206.59;6316909;21;105174;-39
2024/04/13 09:24:23;;;;;;;5.17;3.37;;;19.10;99.90;;;19.01;64.36;102209.72;6279830;21;95726;-39
2024/04/13 09:26:53;;;;;;;3.53;2.50;;;19.20;99.90;;;18.96;56.89;102200.19;6327740;21;101496;-43
2024/04/13 09:29:43;;;;;;;7.87;3.77;;;19.20;99.90;;;19.04;59.90;102206.03;6360878;21;93826;-40
2024/04/13 09:32:20;;;;;;;5.50;3.43;;;19.30;99.90;;;19.05;61.77;102202.41;6332188;21;100110;-42
2024/04/13 09:34:56;;;;;;;4.50;2.90;;;19.30;99.90;;;19.00;59.95;102197.28;6315132;21;94950;-40
2024/04/13 09:37:21;;;;;;;8.47;2.87;;;19.30;99.90;;;19.00;57.12;102194.63;6275477;21;93639;-42
2024/04/13 09:39:47;;;;;;;3.43;2.33;;;19.30;99.90;;;18.99;57.21;102189.34;6441968;21;94641;-44
2024/04/13 09:42:17;;;;;;;4.50;2.80;;;19.30;99.90;;;18.98;58.79;102179.59;6409206;21;114101;-38
2024/04/13 09:44:45;;;;;;;8.93;2.97;;;19.30;99.90;;;18.99;61.85;102170.63;6409122;21;96364;-38
2024/04/13 09:47:13;;;;;;;5.93;3.30;;;19.30;99.90;;;19.17;63.72;102166.22;6460942;21;93579;-40
2024/04/13 09:49:41;;;;;;;6.00;2.73;;;19.40;99.90;;;19.10;55.39;102168.31;6474039;21;94390;-42
2024/04/13 09:52:07;;;;;;;1.87;1.53;;;19.40;99.90;;;18.96;55.93;102162.75;6410596;21;120263;-44
2024/04/13 09:54:36;;;;;;;8.30;3.53;;;19.30;99.90;;;18.98;62.54;102160.88;6354391;21;95276;-44
2024/04/13 09:57:13;;;;;;;5.77;3.33;;;19.30;99.90;;;19.17;63.36;102152.84;6405652;21;93721;-43
2024/04/13 09:59:42;;;;;;;5.93;3.30;;;19.40;99.90;;;19.07;54.96;102148.84;6436788;21;93758;-45
2024/04/13 10:02:11;;;;;;;3.17;1.73;;;19.40;99.90;;;19.10;56.18;102143.38;6458677;21;94720;-40
2024/04/13 10:04:38;;;;;;;6.00;2.77;;;19.40;99.90;;;19.11;57.06;102150.47;6381859;21;95250;-42
2024/04/13 10:07:17;;;;;;;6.97;2.37;;;19.40;99.90;;;19.01;56.46;102144.69;6301751;21;93421;-43
2024/04/13 10:09:52;;;;;;;2.80;1.30;;;19.30;99.90;;;19.06;55.07;102153.34;6280579;21;93410;-42
2024/04/13 10:12:30;;;;;;;4.90;2.50;;;19.40;99.90;;;19.06;56.12;102142.63;6328889;21;95403;-41
2024/04/13 10:14:58;;;;;;;3.13;1.90;;;19.40;99.90;;;19.05;60.96;102135.56;6286656;21;94132;-42
2024/04/13 10:17:35;;;;;;;2.67;1.50;;;19.30;99.90;;;19.18;60.08;102136.72;6432305;21;93643;-44
2024/04/13 10:20:02;;;;;;;1.97;1.50;;;19.50;99.90;;;19.22;56.58;102138.28;6489210;21;93547;-42